Beau Rivage — WDD3117 — position and weather

sailwx.info

Track history (hours):
 
Tides and Currents Weather Stations Pressure Air Temp Water Temp Dewpoint Dewpoint Depression Visibility Wind Speed Wind Dir Waves Ship Positions

Beau Rivage

Owner: Brown, Ricky, Vancleave, MS. More information available from US FCC via Universal Licensing System and Coast Guard Vessel Documentation Center.

Last reported at 2017-Nov-07 06:47 UTC. Time now 2017-Dec-17 14:00 UTC.
Position N 25°39' W 080°05'.
Warning: this ship's position is 40 days out of date.

Length 29 m.

Type: Fishing. MMSI: 367125970.

Date/timePositionNaut miles runAvg speedWind from/ knotsBaromVisibWave heightAir tempDewpointWater temp
2017-Nov-07 06:47N 25°39' W 080°05'3 8.6
2017-Nov-07 06:30N 25°41' W 080°04'4 8.7
2017-Nov-07 06:00N 25°45' W 080°04'5 9.2
2017-Nov-07 05:30N 25°50' W 080°04'5 9.2
2017-Nov-07 05:00N 25°55' W 080°04'5 9.5
2017-Nov-07 04:30N 25°59' W 080°04'5 9.6
2017-Nov-07 04:01N 26°04' W 080°04'5 9.5
2017-Nov-07 03:30N 26°09' W 080°05'46 9.4
2017-Nov-06 22:39N 26°55' W 080°02'110.1
2017-Nov-06 22:30N 26°56' W 080°02'  
Track history (hours):
 
Tides and Currents Weather Stations Pressure Air Temp Water Temp Dewpoint Dewpoint Depression Visibility Wind Speed Wind Dir Waves Ship Positions

Beau Rivage

Owner: Brown, Ricky, Vancleave, MS. More information available from US FCC via Universal Licensing System and Coast Guard Vessel Documentation Center.

Last reported at 2017-Nov-07 06:47 UTC. Time now 2017-Dec-17 14:00 UTC.
Position N 25°39' W 080°05'.
Warning: this ship's position is 40 days out of date.

Length 29 m.

Type: Fishing. MMSI: 367125970.

Date/timePositionNaut miles runAvg speedWind from/ knotsBaromVisibWave heightAir tempDewpointWater temp
2017-Nov-07 06:47N 25°39' W 080°05'3 8.6
2017-Nov-07 06:30N 25°41' W 080°04'4 8.7
2017-Nov-07 06:00N 25°45' W 080°04'5 9.2
2017-Nov-07 05:30N 25°50' W 080°04'5 9.2
2017-Nov-07 05:00N 25°55' W 080°04'5 9.5
2017-Nov-07 04:30N 25°59' W 080°04'5 9.6
2017-Nov-07 04:01N 26°04' W 080°04'5 9.5
2017-Nov-07 03:30N 26°09' W 080°05'46 9.4
2017-Nov-06 22:39N 26°55' W 080°02'110.1
2017-Nov-06 22:30N 26°56' W 080°02'  

Dump ship's entire track history